sensor_id;sensor_type;location;lat;lon;timestamp;P1;durP1;ratioP1;P2;durP2;ratioP2
66721;SDS011;53633;49.932;10.884;2023-06-26T00:00:56;9.23;;;4.77;;
66721;SDS011;53633;49.932;10.884;2023-06-26T00:03:23;8.80;;;4.63;;
66721;SDS011;53633;49.932;10.884;2023-06-26T00:05:50;8.38;;;4.65;;
66721;SDS011;53633;49.932;10.884;2023-06-26T00:08:17;10.93;;;5.05;;
66721;SDS011;53633;49.932;10.884;2023-06-26T00:10:45;10.32;;;4.90;;
66721;SDS011;53633;49.932;10.884;2023-06-26T00:13:11;10.77;;;5.33;;
66721;SDS011;53633;49.932;10.884;2023-06-26T00:15:38;10.05;;;5.20;;
66721;SDS011;53633;49.932;10.884;2023-06-26T00:18:05;11.50;;;5.50;;
66721;SDS011;53633;49.932;10.884;2023-06-26T00:20:31;9.02;;;5.00;;
66721;SDS011;53633;49.932;10.884;2023-06-26T00:22:58;10.50;;;5.50;;
66721;SDS011;53633;49.932;10.884;2023-06-26T00:25:25;10.13;;;4.80;;
66721;SDS011;53633;49.932;10.884;2023-06-26T00:27:53;13.32;;;5.57;;
66721;SDS011;53633;49.932;10.884;2023-06-26T00:30:20;9.23;;;5.05;;
66721;SDS011;53633;49.932;10.884;2023-06-26T00:32:46;9.60;;;5.40;;
66721;SDS011;53633;49.932;10.884;2023-06-26T00:35:13;10.77;;;5.75;;
66721;SDS011;53633;49.932;10.884;2023-06-26T00:37:40;9.00;;;4.90;;
66721;SDS011;53633;49.932;10.884;2023-06-26T00:40:07;9.10;;;5.32;;
66721;SDS011;53633;49.932;10.884;2023-06-26T00:42:34;10.98;;;5.13;;
66721;SDS011;53633;49.932;10.884;2023-06-26T00:45:03;9.43;;;5.05;;
66721;SDS011;53633;49.932;10.884;2023-06-26T00:47:30;9.93;;;5.72;;
66721;SDS011;53633;49.932;10.884;2023-06-26T00:49:57;9.00;;;5.10;;
66721;SDS011;53633;49.932;10.884;2023-06-26T00:52:24;8.70;;;5.13;;
66721;SDS011;53633;49.932;10.884;2023-06-26T00:54:51;9.82;;;5.38;;
66721;SDS011;53633;49.932;10.884;2023-06-26T00:57:18;9.00;;;5.03;;
66721;SDS011;53633;49.932;10.884;2023-06-26T00:59:45;10.35;;;5.60;;
66721;SDS011;53633;49.932;10.884;2023-06-26T01:02:13;8.57;;;4.63;;
66721;SDS011;53633;49.932;10.884;2023-06-26T01:04:40;10.05;;;5.30;;
66721;SDS011;53633;49.932;10.884;2023-06-26T01:07:06;10.02;;;5.43;;
66721;SDS011;53633;49.932;10.884;2023-06-26T01:09:33;10.00;;;5.60;;
66721;SDS011;53633;49.932;10.884;2023-06-26T01:12:01;9.50;;;5.13;;
66721;SDS011;53633;49.932;10.884;2023-06-26T01:14:28;9.87;;;4.80;;
66721;SDS011;53633;49.932;10.884;2023-06-26T01:16:55;12.75;;;5.35;;
66721;SDS011;53633;49.932;10.884;2023-06-26T01:19:23;12.27;;;5.72;;
66721;SDS011;53633;49.932;10.884;2023-06-26T01:21:54;9.75;;;5.03;;
66721;SDS011;53633;49.932;10.884;2023-06-26T01:24:25;10.00;;;4.82;;
66721;SDS011;53633;49.932;10.884;2023-06-26T01:27:01;10.30;;;5.00;;
66721;SDS011;53633;49.932;10.884;2023-06-26T01:29:28;9.02;;;5.18;;
66721;SDS011;53633;49.932;10.884;2023-06-26T01:31:57;11.45;;;5.05;;
66721;SDS011;53633;49.932;10.884;2023-06-26T01:34:25;13.07;;;5.32;;
66721;SDS011;53633;49.932;10.884;2023-06-26T01:36:53;10.15;;;4.88;;
66721;SDS011;53633;49.932;10.884;2023-06-26T01:39:19;11.57;;;5.30;;
66721;SDS011;53633;49.932;10.884;2023-06-26T01:41:46;8.88;;;4.88;;
66721;SDS011;53633;49.932;10.884;2023-06-26T01:44:20;9.27;;;5.20;;
66721;SDS011;53633;49.932;10.884;2023-06-26T01:46:54;9.88;;;4.85;;
66721;SDS011;53633;49.932;10.884;2023-06-26T01:49:28;9.70;;;5.40;;
66721;SDS011;53633;49.932;10.884;2023-06-26T01:52:07;10.43;;;4.90;;
66721;SDS011;53633;49.932;10.884;2023-06-26T01:54:38;9.07;;;4.90;;
66721;SDS011;53633;49.932;10.884;2023-06-26T01:57:08;10.82;;;5.07;;
66721;SDS011;53633;49.932;10.884;2023-06-26T01:59:38;8.50;;;4.82;;
66721;SDS011;53633;49.932;10.884;2023-06-26T02:02:06;10.60;;;5.35;;
66721;SDS011;53633;49.932;10.884;2023-06-26T02:04:34;8.90;;;5.30;;
66721;SDS011;53633;49.932;10.884;2023-06-26T02:07:00;9.90;;;5.50;;
66721;SDS011;53633;49.932;10.884;2023-06-26T02:09:27;11.07;;;5.32;;
66721;SDS011;53633;49.932;10.884;2023-06-26T02:11:54;9.75;;;5.50;;
66721;SDS011;53633;49.932;10.884;2023-06-26T02:14:21;9.55;;;5.03;;
66721;SDS011;53633;49.932;10.884;2023-06-26T02:16:49;9.37;;;5.37;;
66721;SDS011;53633;49.932;10.884;2023-06-26T02:19:15;10.40;;;4.70;;
66721;SDS011;53633;49.932;10.884;2023-06-26T02:21:56;9.57;;;5.28;;
66721;SDS011;53633;49.932;10.884;2023-06-26T02:24:23;11.18;;;5.68;;
66721;SDS011;53633;49.932;10.884;2023-06-26T02:26:49;10.75;;;5.10;;
66721;SDS011;53633;49.932;10.884;2023-06-26T02:29:16;9.20;;;4.93;;
66721;SDS011;53633;49.932;10.884;2023-06-26T02:31:42;10.27;;;4.93;;
66721;SDS011;53633;49.932;10.884;2023-06-26T02:34:11;11.18;;;5.63;;
66721;SDS011;53633;49.932;10.884;2023-06-26T02:36:37;8.18;;;4.53;;
66721;SDS011;53633;49.932;10.884;2023-06-26T02:39:04;10.95;;;4.90;;
66721;SDS011;53633;49.932;10.884;2023-06-26T02:41:31;11.73;;;5.60;;
66721;SDS011;53633;49.932;10.884;2023-06-26T02:43:57;9.70;;;5.68;;
66721;SDS011;53633;49.932;10.884;2023-06-26T02:46:24;10.65;;;5.00;;
66721;SDS011;53633;49.932;10.884;2023-06-26T02:48:51;10.02;;;4.82;;
66721;SDS011;53633;49.932;10.884;2023-06-26T02:51:19;9.38;;;4.80;;
66721;SDS011;53633;49.932;10.884;2023-06-26T02:53:46;9.40;;;4.67;;
66721;SDS011;53633;49.932;10.884;2023-06-26T02:56:12;10.00;;;5.43;;
66721;SDS011;53633;49.932;10.884;2023-06-26T02:58:39;10.23;;;5.13;;
66721;SDS011;53633;49.932;10.884;2023-06-26T03:01:05;10.15;;;5.15;;
66721;SDS011;53633;49.932;10.884;2023-06-26T03:03:32;10.10;;;5.57;;
66721;SDS011;53633;49.932;10.884;2023-06-26T03:05:59;10.50;;;5.13;;
66721;SDS011;53633;49.932;10.884;2023-06-26T03:08:27;11.70;;;4.65;;
66721;SDS011;53633;49.932;10.884;2023-06-26T03:10:54;11.77;;;4.90;;
66721;SDS011;53633;49.932;10.884;2023-06-26T03:13:20;11.38;;;5.80;;
66721;SDS011;53633;49.932;10.884;2023-06-26T03:15:47;13.02;;;5.47;;
66721;SDS011;53633;49.932;10.884;2023-06-26T03:18:13;9.37;;;4.73;;
66721;SDS011;53633;49.932;10.884;2023-06-26T03:20:40;11.45;;;5.30;;
66721;SDS011;53633;49.932;10.884;2023-06-26T03:23:07;9.50;;;5.43;;
66721;SDS011;53633;49.932;10.884;2023-06-26T03:25:35;12.05;;;5.57;;
66721;SDS011;53633;49.932;10.884;2023-06-26T03:28:02;12.77;;;5.50;;
66721;SDS011;53633;49.932;10.884;2023-06-26T03:30:28;11.53;;;5.40;;
66721;SDS011;53633;49.932;10.884;2023-06-26T03:32:55;9.70;;;5.45;;
66721;SDS011;53633;49.932;10.884;2023-06-26T03:35:22;10.63;;;5.25;;
66721;SDS011;53633;49.932;10.884;2023-06-26T03:37:49;8.90;;;4.68;;
66721;SDS011;53633;49.932;10.884;2023-06-26T03:40:15;11.65;;;5.45;;
66721;SDS011;53633;49.932;10.884;2023-06-26T03:42:43;9.60;;;5.30;;
66721;SDS011;53633;49.932;10.884;2023-06-26T03:45:10;11.48;;;5.82;;
66721;SDS011;53633;49.932;10.884;2023-06-26T03:47:37;11.77;;;5.57;;
66721;SDS011;53633;49.932;10.884;2023-06-26T03:50:04;10.48;;;5.15;;
66721;SDS011;53633;49.932;10.884;2023-06-26T03:52:31;10.48;;;5.10;;
66721;SDS011;53633;49.932;10.884;2023-06-26T03:54:58;11.13;;;5.53;;
66721;SDS011;53633;49.932;10.884;2023-06-26T03:57:24;12.27;;;5.70;;
66721;SDS011;53633;49.932;10.884;2023-06-26T03:59:52;11.02;;;5.35;;
66721;SDS011;53633;49.932;10.884;2023-06-26T04:02:19;10.60;;;5.78;;
66721;SDS011;53633;49.932;10.884;2023-06-26T04:04:46;10.20;;;5.32;;
66721;SDS011;53633;49.932;10.884;2023-06-26T04:07:13;11.80;;;6.20;;
66721;SDS011;53633;49.932;10.884;2023-06-26T04:09:39;13.18;;;6.55;;
66721;SDS011;53633;49.932;10.884;2023-06-26T04:12:06;11.10;;;6.18;;
66721;SDS011;53633;49.932;10.884;2023-06-26T04:14:33;14.80;;;6.20;;
66721;SDS011;53633;49.932;10.884;2023-06-26T04:17:01;10.32;;;5.43;;
66721;SDS011;53633;49.932;10.884;2023-06-26T04:19:28;10.57;;;6.27;;
66721;SDS011;53633;49.932;10.884;2023-06-26T04:21:55;12.45;;;6.30;;
66721;SDS011;53633;49.932;10.884;2023-06-26T04:24:22;12.07;;;5.82;;
66721;SDS011;53633;49.932;10.884;2023-06-26T04:26:48;12.45;;;6.57;;
66721;SDS011;53633;49.932;10.884;2023-06-26T04:29:15;13.60;;;6.03;;
66721;SDS011;53633;49.932;10.884;2023-06-26T04:31:41;11.83;;;5.87;;
66721;SDS011;53633;49.932;10.884;2023-06-26T04:34:10;10.82;;;6.07;;
66721;SDS011;53633;49.932;10.884;2023-06-26T04:36:36;12.30;;;6.13;;
66721;SDS011;53633;49.932;10.884;2023-06-26T04:39:03;13.20;;;6.55;;
66721;SDS011;53633;49.932;10.884;2023-06-26T04:41:30;10.68;;;6.55;;
66721;SDS011;53633;49.932;10.884;2023-06-26T04:43:56;13.53;;;6.70;;
66721;SDS011;53633;49.932;10.884;2023-06-26T04:46:23;12.27;;;6.28;;
66721;SDS011;53633;49.932;10.884;2023-06-26T04:48:50;15.55;;;6.50;;
66721;SDS011;53633;49.932;10.884;2023-06-26T04:51:18;13.18;;;6.82;;
66721;SDS011;53633;49.932;10.884;2023-06-26T04:53:44;11.85;;;6.43;;
66721;SDS011;53633;49.932;10.884;2023-06-26T04:56:11;10.57;;;6.00;;
66721;SDS011;53633;49.932;10.884;2023-06-26T04:58:38;10.65;;;6.47;;
66721;SDS011;53633;49.932;10.884;2023-06-26T05:01:05;11.55;;;7.00;;
66721;SDS011;53633;49.932;10.884;2023-06-26T05:03:32;16.73;;;7.05;;
66721;SDS011;53633;49.932;10.884;2023-06-26T05:05:59;10.65;;;6.00;;
66721;SDS011;53633;49.932;10.884;2023-06-26T05:08:34;12.27;;;7.00;;
66721;SDS011;53633;49.932;10.884;2023-06-26T05:11:00;13.25;;;6.50;;
66721;SDS011;53633;49.932;10.884;2023-06-26T05:13:27;11.10;;;6.97;;
66721;SDS011;53633;49.932;10.884;2023-06-26T05:15:54;12.63;;;7.18;;
66721;SDS011;53633;49.932;10.884;2023-06-26T05:18:20;10.52;;;6.43;;
66721;SDS011;53633;49.932;10.884;2023-06-26T05:20:47;11.97;;;7.10;;
66721;SDS011;53633;49.932;10.884;2023-06-26T05:23:14;14.52;;;7.35;;
66721;SDS011;53633;49.932;10.884;2023-06-26T05:25:45;9.82;;;6.53;;
66721;SDS011;53633;49.932;10.884;2023-06-26T05:28:12;11.65;;;6.93;;
66721;SDS011;53633;49.932;10.884;2023-06-26T05:30:39;11.63;;;7.07;;
66721;SDS011;53633;49.932;10.884;2023-06-26T05:33:07;9.87;;;6.93;;
66721;SDS011;53633;49.932;10.884;2023-06-26T05:35:37;11.23;;;6.97;;
66721;SDS011;53633;49.932;10.884;2023-06-26T05:38:04;11.23;;;6.85;;
66721;SDS011;53633;49.932;10.884;2023-06-26T05:40:31;9.82;;;6.40;;
66721;SDS011;53633;49.932;10.884;2023-06-26T05:43:00;10.00;;;6.88;;
66721;SDS011;53633;49.932;10.884;2023-06-26T05:45:27;9.90;;;7.20;;
66721;SDS011;53633;49.932;10.884;2023-06-26T05:47:53;9.90;;;6.70;;
66721;SDS011;53633;49.932;10.884;2023-06-26T05:50:21;11.85;;;7.05;;
66721;SDS011;53633;49.932;10.884;2023-06-26T05:52:48;14.05;;;7.38;;
66721;SDS011;53633;49.932;10.884;2023-06-26T05:55:15;9.55;;;6.13;;
66721;SDS011;53633;49.932;10.884;2023-06-26T05:57:42;10.53;;;6.13;;
66721;SDS011;53633;49.932;10.884;2023-06-26T06:00:13;9.93;;;6.28;;
66721;SDS011;53633;49.932;10.884;2023-06-26T06:02:41;9.93;;;6.18;;
66721;SDS011;53633;49.932;10.884;2023-06-26T06:05:08;10.50;;;6.45;;
66721;SDS011;53633;49.932;10.884;2023-06-26T06:07:35;12.27;;;5.85;;
66721;SDS011;53633;49.932;10.884;2023-06-26T06:10:03;10.23;;;5.97;;
66721;SDS011;53633;49.932;10.884;2023-06-26T06:12:30;11.60;;;6.80;;
66721;SDS011;53633;49.932;10.884;2023-06-26T06:14:57;10.20;;;6.35;;
66721;SDS011;53633;49.932;10.884;2023-06-26T06:17:25;9.02;;;6.65;;
66721;SDS011;53633;49.932;10.884;2023-06-26T06:19:52;8.73;;;5.88;;
66721;SDS011;53633;49.932;10.884;2023-06-26T06:22:18;10.10;;;6.53;;
66721;SDS011;53633;49.932;10.884;2023-06-26T06:24:45;9.68;;;5.72;;
66721;SDS011;53633;49.932;10.884;2023-06-26T06:27:12;8.98;;;5.65;;
66721;SDS011;53633;49.932;10.884;2023-06-26T06:29:38;10.35;;;6.10;;
66721;SDS011;53633;49.932;10.884;2023-06-26T06:32:06;11.95;;;6.10;;
66721;SDS011;53633;49.932;10.884;2023-06-26T06:34:34;9.23;;;5.90;;
66721;SDS011;53633;49.932;10.884;2023-06-26T06:37:01;9.30;;;5.88;;
66721;SDS011;53633;49.932;10.884;2023-06-26T06:39:28;9.30;;;5.97;;
66721;SDS011;53633;49.932;10.884;2023-06-26T06:41:55;8.57;;;5.78;;
66721;SDS011;53633;49.932;10.884;2023-06-26T06:44:22;9.18;;;5.53;;
66721;SDS011;53633;49.932;10.884;2023-06-26T06:46:48;10.10;;;5.83;;
66721;SDS011;53633;49.932;10.884;2023-06-26T06:49:15;8.73;;;6.07;;
66721;SDS011;53633;49.932;10.884;2023-06-26T06:51:43;9.55;;;6.25;;
66721;SDS011;53633;49.932;10.884;2023-06-26T06:54:10;11.10;;;6.05;;
66721;SDS011;53633;49.932;10.884;2023-06-26T06:56:37;10.65;;;6.22;;
66721;SDS011;53633;49.932;10.884;2023-06-26T06:59:03;8.90;;;6.43;;
66721;SDS011;53633;49.932;10.884;2023-06-26T07:01:30;9.30;;;6.15;;
66721;SDS011;53633;49.932;10.884;2023-06-26T07:03:57;10.13;;;5.57;;
66721;SDS011;53633;49.932;10.884;2023-06-26T07:06:24;10.70;;;5.70;;
66721;SDS011;53633;49.932;10.884;2023-06-26T07:08:52;9.07;;;6.10;;
66721;SDS011;53633;49.932;10.884;2023-06-26T07:11:18;8.20;;;5.50;;
66721;SDS011;53633;49.932;10.884;2023-06-26T07:13:45;11.77;;;5.63;;
66721;SDS011;53633;49.932;10.884;2023-06-26T07:16:12;9.90;;;6.25;;
66721;SDS011;53633;49.932;10.884;2023-06-26T07:18:38;8.88;;;6.03;;
66721;SDS011;53633;49.932;10.884;2023-06-26T07:21:05;9.07;;;6.05;;
66721;SDS011;53633;49.932;10.884;2023-06-26T07:23:32;9.83;;;6.40;;
66721;SDS011;53633;49.932;10.884;2023-06-26T07:26:00;9.57;;;5.78;;
66721;SDS011;53633;49.932;10.884;2023-06-26T07:28:27;10.43;;;5.68;;
66721;SDS011;53633;49.932;10.884;2023-06-26T07:30:53;9.90;;;6.28;;
66721;SDS011;53633;49.932;10.884;2023-06-26T07:33:20;9.65;;;5.45;;
66721;SDS011;53633;49.932;10.884;2023-06-26T07:35:47;11.10;;;6.10;;
66721;SDS011;53633;49.932;10.884;2023-06-26T07:38:14;9.63;;;5.90;;
66721;SDS011;53633;49.932;10.884;2023-06-26T07:40:41;10.38;;;6.35;;
66721;SDS011;53633;49.932;10.884;2023-06-26T07:43:09;10.88;;;6.45;;
66721;SDS011;53633;49.932;10.884;2023-06-26T07:45:35;9.95;;;5.90;;
66721;SDS011;53633;49.932;10.884;2023-06-26T07:48:02;10.33;;;6.50;;
66721;SDS011;53633;49.932;10.884;2023-06-26T07:50:29;8.65;;;5.82;;
66721;SDS011;53633;49.932;10.884;2023-06-26T07:52:56;9.93;;;6.05;;
66721;SDS011;53633;49.932;10.884;2023-06-26T07:55:22;9.25;;;6.18;;
66721;SDS011;53633;49.932;10.884;2023-06-26T07:57:50;10.45;;;6.47;;
66721;SDS011;53633;49.932;10.884;2023-06-26T08:00:18;10.57;;;6.53;;
66721;SDS011;53633;49.932;10.884;2023-06-26T08:02:45;8.68;;;5.88;;
66721;SDS011;53633;49.932;10.884;2023-06-26T08:05:12;9.23;;;6.10;;
66721;SDS011;53633;49.932;10.884;2023-06-26T08:07:39;9.73;;;6.40;;
66721;SDS011;53633;49.932;10.884;2023-06-26T08:10:06;9.05;;;6.30;;
66721;SDS011;53633;49.932;10.884;2023-06-26T08:12:33;10.03;;;6.50;;
66721;SDS011;53633;49.932;10.884;2023-06-26T08:14:59;12.00;;;6.40;;
66721;SDS011;53633;49.932;10.884;2023-06-26T08:17:27;9.52;;;5.90;;
66721;SDS011;53633;49.932;10.884;2023-06-26T08:19:56;10.10;;;6.38;;
66721;SDS011;53633;49.932;10.884;2023-06-26T08:22:23;9.90;;;7.00;;
66721;SDS011;53633;49.932;10.884;2023-06-26T08:24:49;10.13;;;6.63;;
66721;SDS011;53633;49.932;10.884;2023-06-26T08:27:16;10.23;;;6.72;;
66721;SDS011;53633;49.932;10.884;2023-06-26T08:29:43;12.32;;;6.63;;
66721;SDS011;53633;49.932;10.884;2023-06-26T08:32:09;10.48;;;6.18;;
66721;SDS011;53633;49.932;10.884;2023-06-26T08:34:37;13.30;;;6.30;;
66721;SDS011;53633;49.932;10.884;2023-06-26T08:37:05;10.13;;;5.90;;
66721;SDS011;53633;49.932;10.884;2023-06-26T08:39:33;9.02;;;6.03;;
66721;SDS011;53633;49.932;10.884;2023-06-26T08:42:00;11.75;;;5.75;;
66721;SDS011;53633;49.932;10.884;2023-06-26T08:44:27;11.95;;;6.25;;
66721;SDS011;53633;49.932;10.884;2023-06-26T08:46:53;9.98;;;7.10;;
66721;SDS011;53633;49.932;10.884;2023-06-26T08:49:21;9.73;;;6.37;;
66721;SDS011;53633;49.932;10.884;2023-06-26T08:52:04;11.55;;;6.07;;
66721;SDS011;53633;49.932;10.884;2023-06-26T08:54:40;10.13;;;7.00;;
66721;SDS011;53633;49.932;10.884;2023-06-26T08:57:11;10.15;;;7.32;;
66721;SDS011;53633;49.932;10.884;2023-06-26T08:59:39;10.63;;;6.45;;
66721;SDS011;53633;49.932;10.884;2023-06-26T09:02:06;10.50;;;6.63;;
66721;SDS011;53633;49.932;10.884;2023-06-26T09:04:33;11.00;;;6.47;;
66721;SDS011;53633;49.932;10.884;2023-06-26T09:07:03;10.77;;;6.38;;
66721;SDS011;53633;49.932;10.884;2023-06-26T09:09:30;12.25;;;6.95;;
66721;SDS011;53633;49.932;10.884;2023-06-26T09:11:57;9.43;;;6.10;;
66721;SDS011;53633;49.932;10.884;2023-06-26T09:14:23;10.10;;;6.97;;
66721;SDS011;53633;49.932;10.884;2023-06-26T09:16:50;9.80;;;6.88;;
66721;SDS011;53633;49.932;10.884;2023-06-26T09:19:17;10.48;;;6.15;;
66721;SDS011;53633;49.932;10.884;2023-06-26T09:21:44;10.07;;;7.05;;
66721;SDS011;53633;49.932;10.884;2023-06-26T09:24:12;9.85;;;6.18;;
66721;SDS011;53633;49.932;10.884;2023-06-26T09:26:39;10.10;;;6.90;;
66721;SDS011;53633;49.932;10.884;2023-06-26T09:29:06;10.52;;;7.32;;
66721;SDS011;53633;49.932;10.884;2023-06-26T09:31:33;9.95;;;6.28;;
66721;SDS011;53633;49.932;10.884;2023-06-26T09:34:07;8.98;;;6.38;;
66721;SDS011;53633;49.932;10.884;2023-06-26T09:36:34;10.25;;;6.25;;
66721;SDS011;53633;49.932;10.884;2023-06-26T09:39:06;9.23;;;6.80;;
66721;SDS011;53633;49.932;10.884;2023-06-26T09:41:35;9.90;;;6.90;;
66721;SDS011;53633;49.932;10.884;2023-06-26T09:44:02;9.00;;;6.43;;
66721;SDS011;53633;49.932;10.884;2023-06-26T09:46:29;9.43;;;6.47;;
66721;SDS011;53633;49.932;10.884;2023-06-26T09:49:03;9.65;;;6.45;;
66721;SDS011;53633;49.932;10.884;2023-06-26T09:51:31;10.33;;;7.00;;
66721;SDS011;53633;49.932;10.884;2023-06-26T09:53:59;9.93;;;6.88;;
66721;SDS011;53633;49.932;10.884;2023-06-26T09:56:26;9.82;;;6.47;;
66721;SDS011;53633;49.932;10.884;2023-06-26T09:58:55;10.23;;;6.60;;
66721;SDS011;53633;49.932;10.884;2023-06-26T10:01:23;9.75;;;6.15;;
66721;SDS011;53633;49.932;10.884;2023-06-26T10:03:50;8.90;;;6.30;;
66721;SDS011;53633;49.932;10.884;2023-06-26T10:06:18;11.15;;;7.07;;
66721;SDS011;53633;49.932;10.884;2023-06-26T10:08:48;9.63;;;6.57;;
66721;SDS011;53633;49.932;10.884;2023-06-26T10:11:16;10.85;;;6.38;;
66721;SDS011;53633;49.932;10.884;2023-06-26T10:13:47;9.35;;;6.35;;
66721;SDS011;53633;49.932;10.884;2023-06-26T10:16:20;8.80;;;6.20;;
66721;SDS011;53633;49.932;10.884;2023-06-26T10:18:50;10.77;;;6.53;;
66721;SDS011;53633;49.932;10.884;2023-06-26T10:21:20;9.52;;;6.57;;
66721;SDS011;53633;49.932;10.884;2023-06-26T10:23:49;10.02;;;6.18;;
66721;SDS011;53633;49.932;10.884;2023-06-26T10:26:18;9.02;;;6.35;;
66721;SDS011;53633;49.932;10.884;2023-06-26T10:28:47;11.63;;;6.57;;
66721;SDS011;53633;49.932;10.884;2023-06-26T10:31:17;9.35;;;5.75;;
66721;SDS011;53633;49.932;10.884;2023-06-26T10:33:45;9.45;;;5.75;;
66721;SDS011;53633;49.932;10.884;2023-06-26T10:36:16;8.20;;;5.28;;
66721;SDS011;53633;49.932;10.884;2023-06-26T10:38:50;8.75;;;5.13;;
66721;SDS011;53633;49.932;10.884;2023-06-26T10:41:21;10.07;;;5.80;;
66721;SDS011;53633;49.932;10.884;2023-06-26T10:43:49;9.98;;;5.30;;
66721;SDS011;53633;49.932;10.884;2023-06-26T10:46:18;9.85;;;5.13;;
66721;SDS011;53633;49.932;10.884;2023-06-26T10:48:57;9.85;;;5.00;;
66721;SDS011;53633;49.932;10.884;2023-06-26T10:51:24;8.63;;;5.60;;
66721;SDS011;53633;49.932;10.884;2023-06-26T10:53:53;10.07;;;5.47;;
66721;SDS011;53633;49.932;10.884;2023-06-26T10:56:20;8.02;;;5.10;;
66721;SDS011;53633;49.932;10.884;2023-06-26T10:58:48;8.20;;;5.13;;
66721;SDS011;53633;49.932;10.884;2023-06-26T11:01:16;8.30;;;5.05;;
66721;SDS011;53633;49.932;10.884;2023-06-26T11:03:46;8.02;;;5.10;;
66721;SDS011;53633;49.932;10.884;2023-06-26T11:06:15;8.20;;;4.97;;
66721;SDS011;53633;49.932;10.884;2023-06-26T11:08:44;7.70;;;4.88;;
66721;SDS011;53633;49.932;10.884;2023-06-26T11:11:10;8.10;;;5.03;;
66721;SDS011;53633;49.932;10.884;2023-06-26T11:13:37;8.02;;;4.72;;
66721;SDS011;53633;49.932;10.884;2023-06-26T11:16:05;8.05;;;5.22;;
66721;SDS011;53633;49.932;10.884;2023-06-26T11:18:34;8.83;;;5.27;;
66721;SDS011;53633;49.932;10.884;2023-06-26T11:21:04;8.60;;;5.55;;
66721;SDS011;53633;49.932;10.884;2023-06-26T11:23:32;8.35;;;4.95;;
66721;SDS011;53633;49.932;10.884;2023-06-26T11:26:12;8.93;;;4.63;;
66721;SDS011;53633;49.932;10.884;2023-06-26T11:28:41;7.40;;;4.57;;
66721;SDS011;53633;49.932;10.884;2023-06-26T11:31:23;8.40;;;4.73;;
66721;SDS011;53633;49.932;10.884;2023-06-26T11:33:52;9.23;;;5.10;;
66721;SDS011;53633;49.932;10.884;2023-06-26T11:36:19;8.15;;;5.03;;
66721;SDS011;53633;49.932;10.884;2023-06-26T11:38:45;7.80;;;4.60;;
66721;SDS011;53633;49.932;10.884;2023-06-26T11:41:16;8.82;;;4.82;;
66721;SDS011;53633;49.932;10.884;2023-06-26T11:43:43;9.30;;;4.90;;
66721;SDS011;53633;49.932;10.884;2023-06-26T11:46:10;7.68;;;5.00;;
66721;SDS011;53633;49.932;10.884;2023-06-26T11:48:36;7.20;;;4.72;;
66721;SDS011;53633;49.932;10.884;2023-06-26T11:51:05;10.60;;;5.40;;
66721;SDS011;53633;49.932;10.884;2023-06-26T11:53:32;9.23;;;5.10;;
66721;SDS011;53633;49.932;10.884;2023-06-26T11:56:07;10.40;;;5.07;;
66721;SDS011;53633;49.932;10.884;2023-06-26T11:58:34;8.75;;;5.35;;
66721;SDS011;53633;49.932;10.884;2023-06-26T12:01:01;8.18;;;4.80;;
66721;SDS011;53633;49.932;10.884;2023-06-26T12:03:28;7.80;;;4.47;;
66721;SDS011;53633;49.932;10.884;2023-06-26T12:05:56;8.32;;;4.30;;
66721;SDS011;53633;49.932;10.884;2023-06-26T12:08:24;8.80;;;5.00;;
66721;SDS011;53633;49.932;10.884;2023-06-26T12:10:52;8.95;;;5.00;;
66721;SDS011;53633;49.932;10.884;2023-06-26T12:13:18;8.00;;;5.07;;
66721;SDS011;53633;49.932;10.884;2023-06-26T12:15:45;7.38;;;4.82;;
66721;SDS011;53633;49.932;10.884;2023-06-26T12:18:12;8.77;;;4.60;;
66721;SDS011;53633;49.932;10.884;2023-06-26T12:20:39;8.73;;;5.10;;
66721;SDS011;53633;49.932;10.884;2023-06-26T12:23:11;7.30;;;4.80;;
66721;SDS011;53633;49.932;10.884;2023-06-26T12:25:39;8.07;;;4.57;;
66721;SDS011;53633;49.932;10.884;2023-06-26T12:28:14;10.50;;;5.50;;
66721;SDS011;53633;49.932;10.884;2023-06-26T12:30:45;8.57;;;4.95;;
66721;SDS011;53633;49.932;10.884;2023-06-26T12:33:12;9.67;;;5.20;;
66721;SDS011;53633;49.932;10.884;2023-06-26T12:35:40;8.75;;;4.97;;
66721;SDS011;53633;49.932;10.884;2023-06-26T12:38:08;10.57;;;5.20;;
66721;SDS011;53633;49.932;10.884;2023-06-26T12:40:35;10.15;;;5.45;;
66721;SDS011;53633;49.932;10.884;2023-06-26T12:43:22;8.65;;;5.22;;
66721;SDS011;53633;49.932;10.884;2023-06-26T12:45:53;8.73;;;4.90;;
66721;SDS011;53633;49.932;10.884;2023-06-26T12:48:20;8.63;;;5.10;;
66721;SDS011;53633;49.932;10.884;2023-06-26T12:50:47;9.70;;;5.35;;
66721;SDS011;53633;49.932;10.884;2023-06-26T12:53:14;8.75;;;5.20;;
66721;SDS011;53633;49.932;10.884;2023-06-26T12:55:41;8.98;;;4.70;;
66721;SDS011;53633;49.932;10.884;2023-06-26T12:58:09;8.30;;;4.97;;
66721;SDS011;53633;49.932;10.884;2023-06-26T13:00:36;10.80;;;5.30;;
66721;SDS011;53633;49.932;10.884;2023-06-26T13:03:03;9.05;;;5.18;;
66721;SDS011;53633;49.932;10.884;2023-06-26T13:05:30;10.43;;;5.68;;
66721;SDS011;53633;49.932;10.884;2023-06-26T13:07:57;7.90;;;5.20;;
66721;SDS011;53633;49.932;10.884;2023-06-26T13:10:24;11.93;;;5.50;;
66721;SDS011;53633;49.932;10.884;2023-06-26T13:12:50;8.90;;;5.50;;
66721;SDS011;53633;49.932;10.884;2023-06-26T13:15:18;7.82;;;5.10;;
66721;SDS011;53633;49.932;10.884;2023-06-26T13:17:45;10.20;;;5.78;;
66721;SDS011;53633;49.932;10.884;2023-06-26T13:20:12;7.80;;;5.22;;
66721;SDS011;53633;49.932;10.884;2023-06-26T13:22:38;8.37;;;5.23;;
66721;SDS011;53633;49.932;10.884;2023-06-26T13:25:05;8.55;;;5.22;;
66721;SDS011;53633;49.932;10.884;2023-06-26T13:27:32;8.30;;;5.03;;
66721;SDS011;53633;49.932;10.884;2023-06-26T13:29:59;9.23;;;5.45;;
66721;SDS011;53633;49.932;10.884;2023-06-26T13:32:27;8.43;;;5.43;;
66721;SDS011;53633;49.932;10.884;2023-06-26T13:34:54;8.40;;;5.80;;
66721;SDS011;53633;49.932;10.884;2023-06-26T13:37:21;9.38;;;5.35;;
66721;SDS011;53633;49.932;10.884;2023-06-26T13:39:47;9.70;;;5.20;;
66721;SDS011;53633;49.932;10.884;2023-06-26T13:42:14;8.95;;;5.28;;
66721;SDS011;53633;49.932;10.884;2023-06-26T13:44:41;9.32;;;5.75;;
66721;SDS011;53633;49.932;10.884;2023-06-26T13:47:25;9.10;;;5.50;;
66721;SDS011;53633;49.932;10.884;2023-06-26T13:49:53;8.70;;;5.47;;
66721;SDS011;53633;49.932;10.884;2023-06-26T13:52:20;8.05;;;5.47;;
66721;SDS011;53633;49.932;10.884;2023-06-26T13:54:47;10.32;;;5.65;;
66721;SDS011;53633;49.932;10.884;2023-06-26T13:57:13;10.85;;;5.80;;
66721;SDS011;53633;49.932;10.884;2023-06-26T13:59:40;8.50;;;5.63;;
66721;SDS011;53633;49.932;10.884;2023-06-26T14:02:07;9.00;;;5.93;;
66721;SDS011;53633;49.932;10.884;2023-06-26T14:04:34;9.75;;;5.53;;
66721;SDS011;53633;49.932;10.884;2023-06-26T14:07:03;10.13;;;5.88;;
66721;SDS011;53633;49.932;10.884;2023-06-26T14:09:30;11.55;;;6.32;;
66721;SDS011;53633;49.932;10.884;2023-06-26T14:11:57;9.77;;;6.13;;
66721;SDS011;53633;49.932;10.884;2023-06-26T14:14:24;9.95;;;6.22;;
66721;SDS011;53633;49.932;10.884;2023-06-26T14:16:51;9.02;;;6.30;;
66721;SDS011;53633;49.932;10.884;2023-06-26T14:19:18;9.88;;;6.35;;
66721;SDS011;53633;49.932;10.884;2023-06-26T14:21:44;8.48;;;5.65;;
66721;SDS011;53633;49.932;10.884;2023-06-26T14:24:13;9.60;;;5.87;;
66721;SDS011;53633;49.932;10.884;2023-06-26T14:26:39;10.50;;;6.18;;
66721;SDS011;53633;49.932;10.884;2023-06-26T14:29:06;9.80;;;5.50;;
66721;SDS011;53633;49.932;10.884;2023-06-26T14:31:33;10.57;;;6.53;;